Time;durP1;ratioP1;P1;durP2;ratioP2;P2;SDS_P1;SDS_P2;PMS_P1;PMS_P2;Temp;Humidity;BMP_temperature;BMP_pressure;BME280_temperature;BME280_humidity;BME280_pressure;Samples;Min_cycle;Max_cycle;Signal;HPM_P1;HPM_P2
2022/05/08 00:00:28;;;;;;;16.48;11.50;;;14.40;99.90;;;;;;6730913;88;20247;-77
2022/05/08 00:10:29;;;;;;;17.80;11.85;;;14.10;99.90;;;;;;6724118;88;20252;-77
2022/05/08 00:20:29;;;;;;;17.58;11.65;;;13.90;99.90;;;;;;6727944;88;20606;-77
2022/05/08 00:30:30;;;;;;;18.70;12.00;;;14.00;99.90;;;;;;6736785;88;20714;-76
2022/05/08 00:40:35;;;;;;;22.30;13.82;;;14.00;99.90;;;;;;6732996;88;20296;-77
2022/05/08 00:50:35;;;;;;;19.67;13.23;;;13.70;99.90;;;;;;6729613;88;20195;-77
2022/05/08 01:00:36;;;;;;;19.75;14.13;;;13.70;99.90;;;;;;6742875;88;20174;-77
2022/05/08 01:10:37;;;;;;;24.33;15.30;;;13.60;99.90;;;;;;6729112;88;20224;-77
2022/05/08 01:20:40;;;;;;;26.83;16.20;;;13.30;99.90;;;;;;6723544;88;20596;-77
2022/05/08 01:30:45;;;;;;;29.15;18.58;;;13.10;99.90;;;;;;6732789;88;20217;-77
2022/05/08 01:40:46;;;;;;;30.62;18.83;;;13.00;99.90;;;;;;6734070;88;20197;-78
2022/05/08 01:50:48;;;;;;;31.10;18.83;;;13.00;99.90;;;;;;6731997;88;20198;-77
2022/05/08 02:00:49;;;;;;;29.02;19.15;;;12.80;99.90;;;;;;6746417;88;20700;-77
2022/05/08 02:10:49;;;;;;;29.87;19.20;;;12.90;99.90;;;;;;6751284;88;20308;-76
2022/05/08 02:20:50;;;;;;;30.88;18.75;;;12.90;99.90;;;;;;6743300;88;20212;-76
2022/05/08 02:30:50;;;;;;;30.45;19.58;;;12.80;99.90;;;;;;6744388;88;20202;-77
2022/05/08 02:40:52;;;;;;;29.50;18.03;;;12.60;99.90;;;;;;6739811;88;20190;-77
2022/05/08 02:50:52;;;;;;;30.00;17.87;;;12.60;99.90;;;;;;6735081;88;20681;-77
2022/05/08 03:00:53;;;;;;;30.60;19.95;;;12.40;99.90;;;;;;6729737;88;20185;-77
2022/05/08 03:21:14;;;;;;;30.73;19.08;;;12.50;99.90;;;;;;6734891;88;20185;-78
2022/05/08 03:31:14;;;;;;;30.73;20.08;;;12.60;99.90;;;;;;6740400;88;20273;-78
2022/05/08 03:41:15;;;;;;;38.50;22.67;;;12.50;99.90;;;;;;6737349;88;20198;-77
2022/05/08 03:51:15;;;;;;;33.17;21.15;;;12.20;99.90;;;;;;6734140;88;20228;-78
2022/05/08 04:01:16;;;;;;;35.22;21.50;;;12.20;99.90;;;;;;6733302;88;20222;-76
2022/05/08 04:11:16;;;;;;;32.42;19.52;;;12.50;99.90;;;;;;6731389;88;20760;-77
2022/05/08 04:21:17;;;;;;;26.05;16.37;;;12.50;99.90;;;;;;6733043;88;20659;-78
2022/05/08 04:31:18;;;;;;;28.17;16.50;;;12.40;99.90;;;;;;6730347;88;20206;-76
2022/05/08 04:41:18;;;;;;;27.73;17.77;;;12.40;99.90;;;;;;6738168;88;20203;-78
2022/05/08 04:51:19;;;;;;;33.53;20.65;;;12.50;99.90;;;;;;6739188;88;20201;-78
2022/05/08 05:01:19;;;;;;;35.10;21.50;;;12.30;99.90;;;;;;6731601;88;20211;-77
2022/05/08 05:21:23;;;;;;;36.13;22.70;;;12.40;99.90;;;;;;6743811;88;20690;-80
2022/05/08 05:31:24;;;;;;;34.08;21.30;;;12.50;99.90;;;;;;6715546;88;20257;-80
2022/05/08 05:41:25;;;;;;;32.58;21.35;;;12.70;99.90;;;;;;6661862;89;20251;-82
2022/05/08 05:51:25;;;;;;;31.87;20.10;;;13.00;99.90;;;;;;6671147;89;20705;-82
2022/05/08 06:01:26;;;;;;;26.95;15.55;;;13.40;99.90;;;;;;6665036;89;20298;-81
2022/05/08 06:11:26;;;;;;;18.25;12.30;;;14.00;99.90;;;;;;6671570;89;20217;-80
2022/05/08 06:21:27;;;;;;;18.15;11.98;;;14.50;99.90;;;;;;6654011;88;20191;-80
2022/05/08 06:31:28;;;;;;;17.93;11.17;;;14.70;99.90;;;;;;6648857;88;20278;-79
2022/05/08 06:41:29;;;;;;;17.00;10.55;;;15.00;99.90;;;;;;6663527;89;20953;-81
2022/05/08 06:51:30;;;;;;;15.98;10.70;;;15.10;99.90;;;;;;6667361;88;20188;-80
2022/05/08 07:01:41;;;;;;;14.85;9.68;;;15.10;99.90;;;;;;6668676;88;20640;-82
2022/05/08 07:11:45;;;;;;;14.65;9.98;;;15.50;99.90;;;;;;6675269;88;20180;-82
2022/05/08 07:21:45;;;;;;;14.68;9.68;;;15.80;99.90;;;;;;6677291;88;20244;-85
2022/05/08 07:31:46;;;;;;;16.75;10.27;;;15.90;99.90;;;;;;6636766;88;20823;-82
2022/05/08 07:41:46;;;;;;;17.20;9.87;;;16.30;99.90;;;;;;6667839;89;20732;-82
2022/05/08 08:01:50;;;;;;;17.87;11.25;;;16.40;99.90;;;;;;6679004;89;21025;-85
2022/05/08 08:12:11;;;;;;;17.92;11.05;;;16.20;99.90;;;;;;6757074;78;20262;-82
2022/05/08 08:22:12;;;;;;;18.48;11.80;;;16.80;99.90;;;;;;6734216;88;20194;-78
2022/05/08 08:32:12;;;;;;;17.70;12.20;;;17.20;99.90;;;;;;6725811;88;20343;-79
2022/05/08 08:42:26;;;;;;;16.40;11.25;;;16.90;99.90;;;;;;6722043;88;20609;-78
2022/05/08 08:52:27;;;;;;;17.70;11.80;;;17.10;99.90;;;;;;6707483;88;20726;-78
2022/05/08 09:02:27;;;;;;;19.30;12.15;;;17.00;99.90;;;;;;6703881;88;20210;-79
2022/05/08 09:12:29;;;;;;;19.25;12.15;;;17.30;99.90;;;;;;6710449;88;20300;-78
2022/05/08 09:22:30;;;;;;;16.90;11.70;;;17.80;99.90;;;;;;6724303;88;20198;-79
2022/05/08 09:32:39;;;;;;;17.85;12.23;;;17.90;99.90;;;;;;6725042;88;20181;-79
2022/05/08 09:42:39;;;;;;;17.30;11.90;;;17.80;99.90;;;;;;6712822;88;20186;-76
2022/05/08 09:52:41;;;;;;;17.12;13.00;;;17.70;99.90;;;;;;6715908;88;20668;-80
2022/05/08 10:02:43;;;;;;;21.98;13.65;;;18.30;99.90;;;;;;6730932;88;20269;-78
2022/05/08 10:23:04;;;;;;;17.83;12.60;;;18.30;99.90;;;;;;6722689;88;20205;-81
2022/05/08 10:33:05;;;;;;;13.93;10.32;;;18.90;99.90;;;;;;6738686;88;20234;-81
2022/05/08 10:43:12;;;;;;;15.13;9.25;;;20.20;99.90;;;;;;6734256;88;20894;-81
2022/05/08 10:53:33;;;;;;;13.80;8.80;;;21.20;99.90;;;;;;6722977;88;20210;-80
2022/05/08 11:03:37;;;;;;;14.10;8.20;;;21.50;99.90;;;;;;6731852;88;20205;-81
2022/05/08 11:23:43;;;;;;;13.57;6.55;;;23.00;97.20;;;;;;6713277;88;20323;-78
2022/05/08 11:44:12;;;;;;;9.48;5.50;;;22.90;96.60;;;;;;6702307;88;20630;-77
2022/05/08 11:54:34;;;;;;;9.50;6.05;;;24.40;94.90;;;;;;6706034;88;20190;-79
2022/05/08 12:04:35;;;;;;;10.70;5.00;;;23.60;93.50;;;;;;6719199;88;20166;-79
2022/05/08 12:14:39;;;;;;;8.13;4.17;;;24.50;92.80;;;;;;6714121;88;20208;-77
2022/05/08 12:24:39;;;;;;;9.40;4.80;;;25.70;92.60;;;;;;6704685;88;20705;-77
2022/05/08 12:34:41;;;;;;;8.13;4.15;;;26.10;91.00;;;;;;6713209;88;20227;-77
2022/05/08 12:44:43;;;;;;;8.55;4.20;;;25.50;89.60;;;;;;6698989;88;20174;-76
2022/05/08 12:54:44;;;;;;;8.50;3.78;;;25.90;86.80;;;;;;6706584;88;20166;-76
2022/05/08 13:04:46;;;;;;;7.45;3.35;;;26.20;87.20;;;;;;6708705;88;20725;-76
2022/05/08 13:14:47;;;;;;;7.43;3.00;;;26.70;81.70;;;;;;6712461;88;20205;-76
2022/05/08 13:24:47;;;;;;;7.05;2.80;;;26.90;80.90;;;;;;6706426;88;20668;-78
2022/05/08 13:34:48;;;;;;;5.72;2.37;;;27.10;77.90;;;;;;6706152;88;20211;-76
2022/05/08 13:44:49;;;;;;;6.32;2.35;;;26.30;77.60;;;;;;6715473;88;20201;-78
2022/05/08 13:54:50;;;;;;;5.65;2.40;;;26.50;78.10;;;;;;6728824;88;20221;-80
2022/05/08 14:04:51;;;;;;;4.43;2.30;;;26.90;76.10;;;;;;6729497;88;20222;-78
2022/05/08 14:14:51;;;;;;;7.15;2.30;;;27.20;74.20;;;;;;6701889;88;20260;-80
2022/05/08 14:24:52;;;;;;;5.37;1.98;;;27.20;73.20;;;;;;6706883;88;20218;-78
2022/05/08 14:45:12;;;;;;;4.82;1.90;;;26.50;72.90;;;;;;6705670;88;20167;-75
2022/05/08 14:55:13;;;;;;;5.28;2.20;;;26.90;71.60;;;;;;6694643;88;20658;-74
2022/05/08 15:05:13;;;;;;;7.67;2.10;;;26.60;71.50;;;;;;6691069;88;20218;-77
2022/05/08 15:15:14;;;;;;;3.40;1.67;;;26.30;71.00;;;;;;6696120;88;20826;-79
2022/05/08 15:25:14;;;;;;;5.20;1.90;;;25.60;71.50;;;;;;6702102;88;20282;-77
2022/05/08 15:35:20;;;;;;;4.35;1.60;;;25.50;70.60;;;;;;6697528;88;20246;-77
2022/05/08 15:45:20;;;;;;;6.05;1.50;;;25.20;70.40;;;;;;6663699;88;20192;-77
2022/05/08 15:55:26;;;;;;;6.72;1.67;;;25.10;70.20;;;;;;6668511;88;20209;-77
2022/05/08 16:05:27;;;;;;;6.22;1.60;;;24.50;70.30;;;;;;6668843;88;20186;-77
2022/05/08 16:26:07;;;;;;;4.37;1.37;;;24.10;70.10;;;;;;6686205;88;20533;-76
2022/05/08 16:36:08;;;;;;;5.80;1.30;;;23.60;70.00;;;;;;6645405;88;20189;-78
2022/05/08 16:46:08;;;;;;;5.65;1.48;;;23.80;69.90;;;;;;6656717;88;20262;-77
2022/05/08 16:56:09;;;;;;;7.78;1.52;;;23.70;71.60;;;;;;6697227;88;20191;-77
2022/05/08 17:06:10;;;;;;;3.90;1.27;;;23.60;72.20;;;;;;6702539;88;20799;-77
2022/05/08 17:16:10;;;;;;;5.10;1.40;;;23.40;71.50;;;;;;6688484;88;20700;-79
2022/05/08 17:26:13;;;;;;;4.55;1.30;;;24.30;69.80;;;;;;6700766;88;20190;-77
2022/05/08 17:36:14;;;;;;;4.03;1.27;;;25.30;68.30;;;;;;6671778;88;20323;-77
2022/05/08 17:46:17;;;;;;;3.25;1.10;;;24.90;67.90;;;;;;6686157;88;20211;-76
2022/05/08 17:56:19;;;;;;;4.07;1.00;;;24.20;69.00;;;;;;6698978;88;20616;-78
2022/05/08 18:06:19;;;;;;;3.17;1.00;;;23.90;68.60;;;;;;6705681;88;20211;-77
2022/05/08 18:16:20;;;;;;;6.73;1.00;;;23.80;68.90;;;;;;6702987;88;20584;-79
2022/05/08 18:26:21;;;;;;;5.25;1.10;;;21.40;72.90;;;;;;6702059;88;20182;-77
2022/05/08 18:36:21;;;;;;;4.65;1.20;;;20.50;74.60;;;;;;6700666;88;20198;-78
2022/05/08 18:46:24;;;;;;;5.53;1.10;;;20.10;75.30;;;;;;6708586;88;20519;-78
2022/05/08 18:56:24;;;;;;;4.28;1.00;;;19.70;76.30;;;;;;6699623;88;20236;-77
2022/05/08 19:06:24;;;;;;;3.72;1.23;;;19.40;77.20;;;;;;6681946;88;20270;-77
2022/05/08 19:16:26;;;;;;;3.12;1.15;;;19.00;78.30;;;;;;6696396;88;20349;-76
2022/05/08 19:26:27;;;;;;;4.15;1.40;;;18.60;80.00;;;;;;6687922;88;20249;-78
2022/05/08 19:47:12;;;;;;;4.70;1.20;;;18.20;82.50;;;;;;6692261;88;20901;-76
2022/05/08 19:57:09;;;;;;;5.65;1.50;;;17.90;83.90;;;;;;6693516;88;21035;-76
2022/05/08 20:07:09;;;;;;;4.07;1.30;;;17.80;84.80;;;;;;6697593;88;20215;-77
2022/05/08 20:17:10;;;;;;;5.90;1.35;;;17.60;86.30;;;;;;6697506;88;20210;-77
2022/05/08 20:27:16;;;;;;;5.35;1.30;;;17.60;87.10;;;;;;6691719;88;20213;-77
2022/05/08 20:37:16;;;;;;;3.22;1.25;;;17.40;88.50;;;;;;6698880;88;22418;-77
2022/05/08 20:47:20;;;;;;;3.92;1.33;;;17.10;90.50;;;;;;6699188;88;20270;-77
2022/05/08 20:57:20;;;;;;;4.03;1.40;;;16.90;91.00;;;;;;6640373;88;20722;-77
2022/05/08 21:17:40;;;;;;;6.37;2.00;;;16.60;91.70;;;;;;6701050;88;20226;-80
2022/05/08 21:27:41;;;;;;;5.97;1.70;;;16.60;92.40;;;;;;6704905;88;20631;-78
2022/05/08 21:37:42;;;;;;;5.65;1.70;;;16.30;93.50;;;;;;6701384;88;20292;-77
2022/05/08 21:47:43;;;;;;;5.40;1.70;;;15.80;95.80;;;;;;6698066;88;20266;-76
2022/05/08 21:57:43;;;;;;;3.97;1.70;;;15.50;97.70;;;;;;6689728;88;20777;-78
2022/05/08 22:07:44;;;;;;;5.12;1.87;;;15.50;99.30;;;;;;6661079;88;20262;-78
2022/05/08 22:17:44;;;;;;;7.70;1.90;;;15.30;99.90;;;;;;6683299;88;20210;-78
2022/05/08 22:27:45;;;;;;;5.03;1.90;;;15.30;99.90;;;;;;6712584;88;20215;-78
2022/05/08 22:37:45;;;;;;;7.57;2.05;;;15.00;99.90;;;;;;6683918;88;21443;-77
2022/05/08 22:47:46;;;;;;;5.28;1.95;;;14.80;99.90;;;;;;6700846;88;20191;-78
2022/05/08 22:57:47;;;;;;;5.40;2.00;;;14.80;99.90;;;;;;6706089;88;20192;-77
2022/05/08 23:07:47;;;;;;;4.10;1.70;;;14.60;99.90;;;;;;6709880;88;21097;-76
2022/05/08 23:18:29;;;;;;;4.90;1.90;;;14.40;99.90;;;;;;6756336;77;20179;-82
2022/05/08 23:28:30;;;;;;;3.97;2.05;;;14.20;99.90;;;;;;6676983;88;20184;-83
2022/05/08 23:38:31;;;;;;;4.05;2.08;;;14.10;99.90;;;;;;6670057;89;20188;-84
2022/05/08 23:48:31;;;;;;;5.15;2.08;;;14.00;99.90;;;;;;6727483;88;20188;-84
2022/05/08 23:58:32;;;;;;;6.75;2.17;;;13.80;99.90;;;;;;6709125;88;20195;-84
